Аэропорт: Терновка. Пенза

ICAO: UWPP

METAR:
2013/07/19 07:30
UWPP 190730Z 298006MPS 9999 BKN040 24/09 Q1012 11090060 NOSIG RMK QFE744
METAR:
2013/03/30 18:57
TAF 
      AMD TAF 
      AMD UWPP 301755 3018/3103 CNL